Time;durP1;ratioP1;P1;durP2;ratioP2;P2;SDS_P1;SDS_P2;PMS_P1;PMS_P2;Temp;Humidity;BMP_temperature;BMP_pressure;BME280_temperature;BME280_humidity;BME280_pressure;Samples;Min_cycle;Max_cycle;Signal;HPM_P1;HPM_P2
2021/11/24 00:09:02;;;;;;;24.5;29.9;;;;;;;5;76.9;99680;;;;
2021/11/24 00:20:02;;;;;;;24.5;29.9;;;;;;;5;76.7;99680;;;;
2021/11/24 00:30:02;;;;;;;24.5;29.9;;;;;;;5;76.6;99680;;;;
2021/11/24 00:40:02;;;;;;;20.7;25.8;;;;;;;5.1;76.7;99680;;;;
2021/11/24 00:50:02;;;;;;;20.7;25.8;;;;;;;5.1;76.6;99680;;;;
2021/11/24 01:00:02;;;;;;;20.7;25.8;;;;;;;5;76.8;99680;;;;
2021/11/24 01:10:02;;;;;;;21.2;25.4;;;;;;;4.9;77.2;99680;;;;
2021/11/24 01:21:02;;;;;;;21.2;25.4;;;;;;;4.9;77.3;99680;;;;
2021/11/24 01:31:02;;;;;;;21.2;25.4;;;;;;;4.8;78.5;99680;;;;
2021/11/24 01:42:02;;;;;;;17.7;22;;;;;;;4.8;78.8;99680;;;;
2021/11/24 01:52:02;;;;;;;17.7;22;;;;;;;4.8;78.9;99670;;;;
2021/11/24 02:02:02;;;;;;;17.7;22;;;;;;;4.7;79;99680;;;;
2021/11/24 02:13:02;;;;;;;16.6;22.3;;;;;;;4.6;79.2;99670;;;;
2021/11/24 02:23:02;;;;;;;16.6;22.3;;;;;;;4.6;79.3;99660;;;;
2021/11/24 02:34:02;;;;;;;15.5;21.6;;;;;;;4.5;79.8;99660;;;;
2021/11/24 02:45:02;;;;;;;15.5;21.6;;;;;;;4.5;80.2;99660;;;;
2021/11/24 02:55:02;;;;;;;15.5;21.6;;;;;;;4.6;79.7;99650;;;;
2021/11/24 03:06:02;;;;;;;12.5;15.5;;;;;;;4.6;79.4;99650;;;;
2021/11/24 03:16:02;;;;;;;12.5;15.5;;;;;;;4.7;79.3;99650;;;;
2021/11/24 03:26:02;;;;;;;12.5;15.5;;;;;;;4.5;80;99660;;;;
2021/11/24 03:37:02;;;;;;;13.4;16.4;;;;;;;4.6;79.5;99650;;;;
2021/11/24 03:48:02;;;;;;;13.4;16.4;;;;;;;4.3;80.6;99640;;;;
2021/11/24 03:58:02;;;;;;;13.4;16.4;;;;;;;4.5;80;99640;;;;
2021/11/24 04:09:02;;;;;;;13.7;17.9;;;;;;;4.5;80.3;99630;;;;
2021/11/24 04:19:02;;;;;;;13.7;17.9;;;;;;;4.5;80.2;99620;;;;
2021/11/24 04:30:02;;;;;;;13.7;17.9;;;;;;;4.5;80;99620;;;;
2021/11/24 04:41:02;;;;;;;11.2;13.7;;;;;;;4.3;80.9;99610;;;;
2021/11/24 04:52:02;;;;;;;11.2;13.7;;;;;;;4.3;80.9;99610;;;;
2021/11/24 05:02:02;;;;;;;10.2;11.7;;;;;;;4.4;80.6;99610;;;;
2021/11/24 05:12:04;;;;;;;10.2;11.7;;;;;;;4.4;79.9;99600;;;;
2021/11/24 05:23:04;;;;;;;10.2;11.7;;;;;;;4.1;80;99600;;;;
2021/11/24 05:34:03;;;;;;;9.7;12.5;;;;;;;3.9;79.9;99590;;;;
2021/11/24 05:44:15;;;;;;;9.7;12.5;;;;;;;3.8;80.2;99590;;;;
2021/11/24 05:54:02;;;;;;;9.7;12.5;;;;;;;3.9;80.2;99600;;;;
2021/11/24 06:05:02;;;;;;;8.1;10.5;;;;;;;3.7;80.8;99600;;;;
2021/11/24 06:16:02;;;;;;;8.1;10.5;;;;;;;3.8;80.5;99600;;;;
2021/11/24 06:26:02;;;;;;;8.1;10.5;;;;;;;3.9;80;99600;;;;
2021/11/24 06:36:02;;;;;;;9.8;12.5;;;;;;;3.9;80;99620;;;;
2021/11/24 06:47:02;;;;;;;9.8;12.5;;;;;;;4;79.4;99620;;;;
2021/11/24 06:58:02;;;;;;;9.8;12.5;;;;;;;4;79.8;99630;;;;
2021/11/24 07:09:03;;;;;;;10.2;12.9;;;;;;;4.4;78.3;99630;;;;
2021/11/24 07:20:03;;;;;;;10.2;12.9;;;;;;;4.5;77.8;99630;;;;
2021/11/24 07:31:02;;;;;;;10.2;12.9;;;;;;;4.7;77.1;99630;;;;
2021/11/24 07:42:02;;;;;;;9.3;12;;;;;;;4.9;76.6;99630;;;;
2021/11/24 07:52:02;;;;;;;9.3;12;;;;;;;5.2;75.9;99620;;;;
2021/11/24 08:03:02;;;;;;;9;11.1;;;;;;;5.3;75.9;99620;;;;
2021/11/24 08:13:02;;;;;;;9;11.1;;;;;;;5.5;75;99620;;;;
2021/11/24 08:23:02;;;;;;;9;11.1;;;;;;;5.6;74.6;99620;;;;
2021/11/24 08:33:02;;;;;;;8.8;13.3;;;;;;;5.8;73.4;99620;;;;
2021/11/24 08:44:02;;;;;;;8.8;13.3;;;;;;;6;73.1;99620;;;;
2021/11/24 08:54:02;;;;;;;8.8;13.3;;;;;;;6.3;72.1;99620;;;;
2021/11/24 09:05:04;;;;;;;8.2;12.1;;;;;;;6.5;70.7;99620;;;;
2021/11/24 09:16:02;;;;;;;8.2;12.1;;;;;;;6.7;71;99620;;;;
2021/11/24 09:27:05;;;;;;;8.2;12.1;;;;;;;6.9;68.1;99610;;;;
2021/11/24 09:38:02;;;;;;;8;10.1;;;;;;;7;66.9;99610;;;;
2021/11/24 09:49:02;;;;;;;8;10.1;;;;;;;7.2;64.9;99600;;;;
2021/11/24 10:00:02;;;;;;;8;10.1;;;;;;;7.2;64.7;99590;;;;
2021/11/24 10:11:02;;;;;;;5.5;8.4;;;;;;;7.2;63.4;99580;;;;
2021/11/24 10:21:02;;;;;;;5.5;8.4;;;;;;;7.2;61.4;99590;;;;
2021/11/24 10:31:02;;;;;;;3;4.9;;;;;;;7.2;62.3;99580;;;;
2021/11/24 10:42:02;;;;;;;3;4.9;;;;;;;6.9;62.1;99570;;;;
2021/11/24 10:53:02;;;;;;;3;4.9;;;;;;;7.2;61.9;99550;;;;
2021/11/24 11:03:02;;;;;;;47;58.8;;;;;;;6.9;60.9;99540;;;;
2021/11/24 11:13:02;;;;;;;47;58.8;;;;;;;6.9;60.6;99530;;;;
2021/11/24 11:24:02;;;;;;;47;58.8;;;;;;;7.2;60.8;99510;;;;
2021/11/24 11:34:03;;;;;;;2;4;;;;;;;7.1;60.1;99500;;;;
2021/11/24 11:44:02;;;;;;;2;4;;;;;;;7;60.9;99490;;;;
2021/11/24 11:54:02;;;;;;;2;4;;;;;;;7;60.9;99480;;;;
2021/11/24 12:04:03;;;;;;;4.2;6.4;;;;;;;6.9;60.2;99470;;;;
2021/11/24 12:15:02;;;;;;;4.2;6.4;;;;;;;6.8;61.8;99460;;;;
2021/11/24 12:25:02;;;;;;;4.2;6.4;;;;;;;6.9;59;99460;;;;
2021/11/24 12:36:02;;;;;;;2.7;4.4;;;;;;;6.9;60.1;99450;;;;
2021/11/24 12:46:02;;;;;;;2.7;4.4;;;;;;;6.5;61.2;99440;;;;
2021/11/24 12:56:02;;;;;;;2.7;4.4;;;;;;;6.5;60.9;99450;;;;
2021/11/24 13:07:02;;;;;;;3.4;5.6;;;;;;;6.2;62.5;99450;;;;
2021/11/24 13:17:02;;;;;;;3.4;5.6;;;;;;;6;63.3;99450;;;;
2021/11/24 13:27:02;;;;;;;3.4;5.6;;;;;;;5.8;64.3;99440;;;;
2021/11/24 13:38:02;;;;;;;4.9;7.4;;;;;;;5.8;64.5;99440;;;;
2021/11/24 13:49:02;;;;;;;4.9;7.4;;;;;;;5.7;64.3;99440;;;;
2021/11/24 13:59:02;;;;;;;4.9;7.4;;;;;;;5.9;63.2;99430;;;;
2021/11/24 14:10:02;;;;;;;4.2;6.8;;;;;;;5.9;61.5;99420;;;;
2021/11/24 14:21:02;;;;;;;4.2;6.8;;;;;;;5.7;61.7;99420;;;;
2021/11/24 14:31:02;;;;;;;3.8;6.5;;;;;;;5.5;62.6;99410;;;;
2021/11/24 14:41:02;;;;;;;3.8;6.5;;;;;;;5.1;64;99400;;;;
2021/11/24 14:52:02;;;;;;;3.8;6.5;;;;;;;4.6;65.2;99400;;;;
2021/11/24 15:02:02;;;;;;;8.3;11.3;;;;;;;4.2;66.5;99390;;;;
2021/11/24 15:13:02;;;;;;;8.3;11.3;;;;;;;3.7;67.7;99390;;;;
2021/11/24 15:23:04;;;;;;;8.3;11.3;;;;;;;3.3;70.2;99390;;;;
2021/11/24 15:33:02;;;;;;;10.7;13.5;;;;;;;3.3;70.7;99380;;;;
2021/11/24 15:43:02;;;;;;;10.7;13.5;;;;;;;3.4;70.8;99380;;;;
2021/11/24 15:54:02;;;;;;;10.7;13.5;;;;;;;3.4;70.1;99370;;;;
2021/11/24 16:05:02;;;;;;;31.3;43;;;;;;;3.4;70.4;99370;;;;
2021/11/24 16:15:02;;;;;;;31.3;43;;;;;;;3.4;70.6;99370;;;;
2021/11/24 16:26:03;;;;;;;31.3;43;;;;;;;3.4;70.2;99360;;;;
2021/11/24 16:36:02;;;;;;;18.8;27;;;;;;;3.5;69.5;99350;;;;
2021/11/24 16:47:02;;;;;;;18.8;27;;;;;;;3.6;69.5;99340;;;;
2021/11/24 16:58:02;;;;;;;18.8;27;;;;;;;3.8;70.2;99330;;;;
2021/11/24 17:09:02;;;;;;;11;14.8;;;;;;;3.9;70.1;99330;;;;
2021/11/24 17:20:02;;;;;;;11;14.8;;;;;;;4;69.7;99330;;;;
2021/11/24 17:30:02;;;;;;;26.8;32.9;;;;;;;4.1;70;99330;;;;
2021/11/24 17:41:02;;;;;;;26.8;32.9;;;;;;;4.1;70;99320;;;;
2021/11/24 17:52:02;;;;;;;26.8;32.9;;;;;;;4.1;70.3;99320;;;;
2021/11/24 18:02:02;;;;;;;70;86.4;;;;;;;4;71;99320;;;;
2021/11/24 18:13:02;;;;;;;70;86.4;;;;;;;3.9;71.4;99310;;;;
2021/11/24 18:24:02;;;;;;;70;86.4;;;;;;;4;70.9;99300;;;;
2021/11/24 18:34:02;;;;;;;56.3;67.6;;;;;;;3.8;71.5;99290;;;;
2021/11/24 18:44:02;;;;;;;56.3;67.6;;;;;;;3.7;71.5;99290;;;;
2021/11/24 18:55:03;;;;;;;56.3;67.6;;;;;;;3.3;71.3;99280;;;;
2021/11/24 19:05:02;;;;;;;81;101.4;;;;;;;2.7;72.7;99280;;;;
2021/11/24 19:16:02;;;;;;;81;101.4;;;;;;;2.2;73.3;99250;;;;
2021/11/24 19:27:02;;;;;;;81;101.4;;;;;;;1.9;73.6;99250;;;;
2021/11/24 19:37:02;;;;;;;56.6;68;;;;;;;1.6;74.5;99230;;;;
2021/11/24 19:47:07;;;;;;;56.6;68;;;;;;;1.2;74.8;99220;;;;
2021/11/24 19:58:04;;;;;;;56.6;68;;;;;;;1;75.5;99210;;;;
2021/11/24 20:08:02;;;;;;;37.1;54.7;;;;;;;0.8;76.2;99200;;;;
2021/11/24 20:19:02;;;;;;;37.1;54.7;;;;;;;0.6;76.3;99200;;;;
2021/11/24 20:30:03;;;;;;;36.3;58.1;;;;;;;0.4;76.7;99200;;;;
2021/11/24 20:40:02;;;;;;;36.3;58.1;;;;;;;0.4;79.1;99190;;;;
2021/11/24 20:50:02;;;;;;;36.3;58.1;;;;;;;0.3;78.3;99190;;;;
2021/11/24 21:01:02;;;;;;;23.6;33.4;;;;;;;0.1;78.4;99180;;;;
2021/11/24 21:11:03;;;;;;;23.6;33.4;;;;;;;0;78.3;99180;;;;
2021/11/24 21:22:02;;;;;;;23.6;33.4;;;;;;;-0.1;78.9;99170;;;;
2021/11/24 21:32:02;;;;;;;21.5;32.4;;;;;;;0;79.3;99160;;;;
2021/11/24 21:42:02;;;;;;;21.5;32.4;;;;;;;0;79.8;99160;;;;
2021/11/24 21:53:02;;;;;;;21.5;32.4;;;;;;;-0.1;79.4;99150;;;;
2021/11/24 22:03:02;;;;;;;19.4;28.5;;;;;;;-0.3;78.8;99140;;;;
2021/11/24 22:13:02;;;;;;;19.4;28.5;;;;;;;-0.5;78.6;99140;;;;
2021/11/24 22:24:02;;;;;;;19.4;28.5;;;;;;;-0.6;78.7;99130;;;;
2021/11/24 22:34:02;;;;;;;20.2;26.5;;;;;;;-0.8;79;99110;;;;
2021/11/24 22:45:02;;;;;;;20.2;26.5;;;;;;;-1;79;99100;;;;
2021/11/24 22:56:02;;;;;;;20.2;26.5;;;;;;;-0.9;80.1;99090;;;;
2021/11/24 23:06:02;;;;;;;17.5;27.4;;;;;;;-1;79.6;99070;;;;
2021/11/24 23:17:02;;;;;;;17.5;27.4;;;;;;;-1.1;80.4;99060;;;;
2021/11/24 23:27:02;;;;;;;17.5;27.4;;;;;;;-1.3;80;99050;;;;
2021/11/24 23:37:02;;;;;;;19.9;31.8;;;;;;;-1.5;80.1;99040;;;;
2021/11/24 23:48:02;;;;;;;19.9;31.8;;;;;;;-1.6;81;99020;;;;
2021/11/24 23:58:02;;;;;;;19.9;31.8;;;;;;;-1.7;80.4;99000;;;;
